createdAt,value
2019-04-22T00:00:08.627Z,17.83
2019-04-22T00:02:43.561Z,21.73
2019-04-22T00:05:17.852Z,19.70
2019-04-22T00:08:01.594Z,20.50
2019-04-22T00:10:34.161Z,23.87
2019-04-22T00:13:04.201Z,20.10
2019-04-22T00:15:29.174Z,20.30
2019-04-22T00:20:30.178Z,23.47
2019-04-22T00:22:59.439Z,22.47
2019-04-22T00:25:37.226Z,21.43
2019-04-22T00:28:02.659Z,21.30
2019-04-22T00:30:25.541Z,20.97
2019-04-22T00:33:04.800Z,21.63
2019-04-22T00:35:33.108Z,21.33
2019-04-22T00:38:09.222Z,19.67
2019-04-22T00:40:33.650Z,21.50
2019-04-22T00:43:01.190Z,21.43
2019-04-22T00:45:37.420Z,21.53
2019-04-22T00:48:01.038Z,21.60
2019-04-22T00:50:56.671Z,22.50
2019-04-22T00:53:04.012Z,22.03
2019-04-22T00:55:31.426Z,22.10
2019-04-22T00:58:02.747Z,21.90
2019-04-22T01:00:40.965Z,22.67
2019-04-22T01:03:18.053Z,24.13
2019-04-22T01:05:34.457Z,24.97
2019-04-22T01:08:06.853Z,21.97
2019-04-22T01:10:35.166Z,22.87
2019-04-22T01:12:57.282Z,22.90
2019-04-22T01:15:35.443Z,24.23
2019-04-22T01:17:57.904Z,21.80
2019-04-22T01:20:55.663Z,23.90
2019-04-22T01:22:59.010Z,23.33
2019-04-22T01:25:23.446Z,23.40
2019-04-22T01:27:50.167Z,20.83
2019-04-22T01:30:14.476Z,22.70
2019-04-22T01:32:38.531Z,21.80
2019-04-22T01:35:14.319Z,22.63
2019-04-22T01:37:49.079Z,22.93
2019-04-22T01:40:24.046Z,24.23
2019-04-22T01:42:55.918Z,22.60
2019-04-22T01:45:25.836Z,23.00
2019-04-22T01:47:49.100Z,23.30
2019-04-22T01:50:21.418Z,23.77
2019-04-22T01:52:53.205Z,21.87
2019-04-22T01:55:26.082Z,23.03
2019-04-22T01:57:41.967Z,22.83
2019-04-22T02:00:06.815Z,23.30
2019-04-22T02:02:42.868Z,24.00
2019-04-22T02:05:15.654Z,22.67
2019-04-22T02:07:42.333Z,24.27
2019-04-22T02:10:13.978Z,24.77
2019-04-22T02:15:06.558Z,23.43
2019-04-22T02:17:37.888Z,24.20
2019-04-22T02:20:05.077Z,25.40
2019-04-22T02:22:50.078Z,22.97
2019-04-22T02:25:00.436Z,25.33
2019-04-22T02:27:43.299Z,25.30
2019-04-22T02:29:57.852Z,25.00
2019-04-22T02:32:49.577Z,25.03
2019-04-22T02:35:31.207Z,24.27
2019-04-22T02:37:32.276Z,24.53
2019-04-22T02:42:27.809Z,24.43
2019-04-22T02:44:53.247Z,22.93
2019-04-22T02:49:53.367Z,27.13
2019-04-22T02:52:26.219Z,25.67
2019-04-22T02:55:01.348Z,24.17
2019-04-22T02:58:27.249Z,25.07
2019-04-22T02:59:58.882Z,24.63
2019-04-22T03:02:19.017Z,24.93
2019-04-22T03:04:57.831Z,25.90
2019-04-22T03:07:10.147Z,28.47
2019-04-22T03:10:03.401Z,24.90
2019-04-22T03:12:17.801Z,24.70
2019-04-22T03:14:44.106Z,25.47
2019-04-22T03:17:18.457Z,26.43
2019-04-22T03:27:08.188Z,24.70
2019-04-22T03:30:18.830Z,26.90
2019-04-22T03:37:32.398Z,28.20
2019-04-22T03:42:44.973Z,24.57
2019-04-22T03:45:02.855Z,27.30
2019-04-22T03:49:56.052Z,24.73
2019-04-22T03:52:16.742Z,24.60
2019-04-22T03:55:03.315Z,25.20
2019-04-22T04:00:03.937Z,23.27
2019-04-22T04:04:37.218Z,24.87
2019-04-22T04:09:38.551Z,24.13
2019-04-22T04:14:46.608Z,25.60
2019-04-22T04:17:11.454Z,23.47
2019-04-22T04:22:19.531Z,26.00
2019-04-22T04:24:44.204Z,23.90
2019-04-22T04:27:20.765Z,23.43
2019-04-22T04:29:58.067Z,24.57
2019-04-22T04:32:15.887Z,23.83
2019-04-22T04:34:50.504Z,26.23
2019-04-22T04:39:28.726Z,24.87
2019-04-22T04:47:06.227Z,24.30
2019-04-22T04:49:39.330Z,24.53
2019-04-22T04:56:50.822Z,24.47
2019-04-22T04:59:28.251Z,23.43
2019-04-22T05:02:06.424Z,23.87
2019-04-22T05:06:51.770Z,22.07
2019-04-22T05:11:52.075Z,23.50
2019-04-22T05:14:09.550Z,22.60
2019-04-22T05:16:41.223Z,23.27
2019-04-22T05:19:09.746Z,23.10
2019-04-22T05:21:40.537Z,23.10
2019-04-22T05:24:09.558Z,21.23
2019-04-22T05:26:36.625Z,24.17
2019-04-22T05:29:04.075Z,22.17
2019-04-22T05:31:32.544Z,20.27
2019-04-22T05:33:56.456Z,19.73
2019-04-22T05:36:44.470Z,21.93
2019-04-22T05:38:58.322Z,21.20
2019-04-22T05:41:26.579Z,19.63
2019-04-22T05:43:50.220Z,20.40
2019-04-22T05:46:15.728Z,19.60
2019-04-22T05:48:53.887Z,21.37
2019-04-22T05:51:17.799Z,20.77
2019-04-22T05:53:48.181Z,20.07
2019-04-22T05:56:23.778Z,19.47
2019-04-22T05:58:47.895Z,22.83
2019-04-22T06:03:46.493Z,18.50
2019-04-22T06:06:14.830Z,19.13
2019-04-22T06:08:39.931Z,19.63
2019-04-22T06:11:16.879Z,18.80
2019-04-22T06:13:31.937Z,18.73
2019-04-22T06:16:09.188Z,18.57
2019-04-22T06:18:33.437Z,19.37
2019-04-22T06:21:07.475Z,18.67
2019-04-22T06:31:08.899Z,20.87
2019-04-22T06:38:43.120Z,19.33
2019-04-22T06:41:04.515Z,20.83
2019-04-22T06:43:21.711Z,18.97
2019-04-22T06:45:45.338Z,19.40
2019-04-22T06:48:28.454Z,20.50
2019-04-22T06:50:47.581Z,21.37
2019-04-22T06:53:16.930Z,18.70
2019-04-22T06:55:46.980Z,18.20
2019-04-22T06:58:15.300Z,19.70
2019-04-22T07:05:59.942Z,17.57
2019-04-22T07:08:30.425Z,15.87
2019-04-22T07:10:43.457Z,16.10
2019-04-22T07:13:10.998Z,16.60
2019-04-22T07:18:11.117Z,14.83
2019-04-22T07:20:42.160Z,13.47
2019-04-22T07:23:07.937Z,14.43
2019-04-22T07:25:36.329Z,15.30
2019-04-22T07:28:07.886Z,14.93
2019-04-22T07:30:35.029Z,14.20
2019-04-22T07:35:36.273Z,10.07
2019-04-22T07:38:05.858Z,19.37
2019-04-22T07:40:37.447Z,11.17
2019-04-22T07:43:04.334Z,10.60
2019-04-22T07:45:29.856Z,8.53
2019-04-22T07:48:02.730Z,10.87
2019-04-22T07:50:43.043Z,9.93
2019-04-22T07:52:58.897Z,8.87
2019-04-22T07:55:27.307Z,8.60
2019-04-22T07:57:58.226Z,8.77
2019-04-22T08:00:34.322Z,9.60
2019-04-22T08:03:09.842Z,9.40
2019-04-22T08:05:38.125Z,8.80
2019-04-22T08:08:08.472Z,8.27
2019-04-22T08:10:40.095Z,7.37
2019-04-22T08:12:57.684Z,8.10
2019-04-22T08:15:32.961Z,7.03
2019-04-22T08:18:18.999Z,10.17
2019-04-22T08:20:37.251Z,7.10
2019-04-22T08:25:33.210Z,6.40
2019-04-22T08:28:05.714Z,6.33
2019-04-22T08:30:47.883Z,8.73
2019-04-22T08:33:00.679Z,7.00
2019-04-22T08:35:40.874Z,7.47
2019-04-22T08:38:17.644Z,6.37
2019-04-22T08:40:37.781Z,7.07
2019-04-22T08:43:14.062Z,5.90
2019-04-22T08:45:48.196Z,6.70
2019-04-22T08:48:07.705Z,6.33
2019-04-22T08:50:38.814Z,6.97
2019-04-22T08:53:08.164Z,5.87
2019-04-22T08:55:38.512Z,6.80
2019-04-22T08:58:26.655Z,9.23
2019-04-22T09:00:43.914Z,6.20
2019-04-22T09:03:11.053Z,6.10
2019-04-22T09:08:13.675Z,7.00
2019-04-22T09:13:22.489Z,6.07
2019-04-22T09:15:34.324Z,6.83
2019-04-22T09:18:08.451Z,6.60
2019-04-22T09:23:09.711Z,6.00
2019-04-22T09:25:34.204Z,6.20
2019-04-22T09:28:01.971Z,5.67
2019-04-22T09:33:07.851Z,7.50
2019-04-22T09:38:15.345Z,6.10
2019-04-22T09:40:34.516Z,6.10
2019-04-22T09:43:02.525Z,4.97
2019-04-22T09:45:32.404Z,6.90
2019-04-22T09:48:00.853Z,5.77
2019-04-22T09:50:40.462Z,5.17
2019-04-22T09:53:04.929Z,6.28
2019-04-22T09:55:29.784Z,8.40
2019-04-22T09:57:55.850Z,5.23
2019-04-22T10:00:39.498Z,6.22
2019-04-22T10:03:07.124Z,5.85
2019-04-22T10:05:35.442Z,6.17
2019-04-22T10:07:59.568Z,6.53
2019-04-22T10:10:48.986Z,6.22
2019-04-22T10:12:57.472Z,7.92
2019-04-22T10:15:33.368Z,7.33
2019-04-22T10:17:57.924Z,6.35
2019-04-22T10:20:31.156Z,4.55
2019-04-22T10:22:58.122Z,4.67
2019-04-22T10:25:32.837Z,7.92
2019-04-22T10:28:08.977Z,6.62
2019-04-22T10:30:43.970Z,5.20
2019-04-22T10:33:02.539Z,4.97
2019-04-22T10:35:17.081Z,5.08
2019-04-22T10:37:40.600Z,5.03
2019-04-22T10:40:11.619Z,4.60
2019-04-22T10:42:43.364Z,4.97
2019-04-22T10:45:12.345Z,7.60
2019-04-22T10:47:40.428Z,5.78
2019-04-22T10:50:08.252Z,5.07
2019-04-22T10:52:35.254Z,5.10
2019-04-22T10:55:03.503Z,7.50
2019-04-22T10:57:31.842Z,5.55
2019-04-22T10:59:58.777Z,5.37
2019-04-22T11:02:25.725Z,5.57
2019-04-22T11:04:52.516Z,5.10
2019-04-22T11:07:24.573Z,5.67
2019-04-22T11:09:58.991Z,6.00
2019-04-22T11:12:22.820Z,6.28
2019-04-22T11:14:47.644Z,12.85
2019-04-22T11:17:15.650Z,5.62
2019-04-22T11:19:43.593Z,5.58
2019-04-22T11:22:18.732Z,8.43
2019-04-22T11:24:39.287Z,9.83
2019-04-22T11:27:06.984Z,5.05
2019-04-22T11:29:35.330Z,5.17
2019-04-22T11:32:02.312Z,5.73
2019-04-22T11:34:29.178Z,5.65
2019-04-22T11:36:56.818Z,7.35
2019-04-22T11:39:23.807Z,5.55
2019-04-22T11:41:51.804Z,4.95
2019-04-22T11:44:19.208Z,7.62
2019-04-22T11:46:47.471Z,7.03
2019-04-22T11:49:14.472Z,6.65
2019-04-22T11:51:42.167Z,6.33
2019-04-22T11:54:10.443Z,7.00
2019-04-22T11:56:39.065Z,5.83
2019-04-22T11:59:06.779Z,7.28
2019-04-22T12:01:34.963Z,6.25
2019-04-22T12:04:02.195Z,7.63
2019-04-22T12:06:29.257Z,5.85
2019-04-22T12:08:57.428Z,7.17
2019-04-22T12:11:26.155Z,5.67
2019-04-22T12:13:53.999Z,8.90
2019-04-22T12:16:21.224Z,6.03
2019-04-22T12:18:49.337Z,6.27
2019-04-22T12:21:19.399Z,13.83
2019-04-22T12:23:47.279Z,5.53
2019-04-22T12:26:18.513Z,5.57
2019-04-22T12:28:44.760Z,5.60
2019-04-22T12:31:13.363Z,5.60
2019-04-22T12:33:41.263Z,6.10
2019-04-22T12:36:10.936Z,5.77
2019-04-22T12:38:37.807Z,7.17
2019-04-22T12:41:07.916Z,6.07
2019-04-22T12:43:33.617Z,7.83
2019-04-22T12:46:00.587Z,6.47
2019-04-22T12:48:27.514Z,8.97
2019-04-22T12:50:58.048Z,7.53
2019-04-22T12:53:27.656Z,7.23
2019-04-22T12:55:55.167Z,5.83
2019-04-22T12:58:23.364Z,7.60
2019-04-22T13:00:51.388Z,6.13
2019-04-22T13:03:20.174Z,5.47
2019-04-22T13:05:47.171Z,6.70
2019-04-22T13:08:14.019Z,5.97
2019-04-22T13:10:51.372Z,7.30
2019-04-22T13:13:09.784Z,7.20
2019-04-22T13:15:39.213Z,6.20
2019-04-22T13:18:17.548Z,6.37
2019-04-22T13:20:34.843Z,5.87
2019-04-22T13:23:02.104Z,6.60
2019-04-22T13:25:32.185Z,8.77
2019-04-22T13:27:57.939Z,6.47
2019-04-22T13:30:26.314Z,6.87
2019-04-22T13:32:54.576Z,10.17
2019-04-22T13:35:24.125Z,13.60
2019-04-22T13:37:51.069Z,9.27
2019-04-22T13:40:19.219Z,5.70
2019-04-22T13:42:46.839Z,6.90
2019-04-22T13:45:15.755Z,10.00
2019-04-22T13:48:01.508Z,78.30
2019-04-22T13:50:56.321Z,30.30
2019-04-22T13:53:18.254Z,7.30
2019-04-22T13:55:41.729Z,9.10
2019-04-22T13:57:56.688Z,6.17
2019-04-22T14:00:20.374Z,6.50
2019-04-22T14:03:06.822Z,9.30
2019-04-22T14:05:37.753Z,9.70
2019-04-22T14:08:06.304Z,7.37
2019-04-22T14:10:34.571Z,5.67
2019-04-22T14:13:02.025Z,5.53
2019-04-22T14:15:29.866Z,6.70
2019-04-22T14:17:56.876Z,7.87
2019-04-22T14:20:27.758Z,5.90
2019-04-22T14:22:54.667Z,9.33
2019-04-22T14:25:22.831Z,6.47
2019-04-22T14:27:56.572Z,6.87
2019-04-22T14:30:20.863Z,6.53
2019-04-22T14:32:47.906Z,5.47
2019-04-22T14:35:15.398Z,6.30
2019-04-22T14:37:43.803Z,6.27
2019-04-22T14:40:12.298Z,6.60
2019-04-22T14:44:43.033Z,6.43
2019-04-22T14:45:44.195Z,6.77
2019-04-22T14:48:09.377Z,5.07
2019-04-22T14:50:29.346Z,15.10
2019-04-22T14:52:58.189Z,6.60
2019-04-22T14:55:14.957Z,4.80
2019-04-22T14:57:37.758Z,5.37
2019-04-22T15:00:09.473Z,6.20
2019-04-22T15:02:37.527Z,5.57
2019-04-22T15:05:06.014Z,6.80
2019-04-22T15:07:33.092Z,6.60
2019-04-22T15:09:59.984Z,6.10
2019-04-22T15:12:35.694Z,7.40
2019-04-22T15:14:55.511Z,11.60
2019-04-22T15:17:24.980Z,5.47
2019-04-22T15:19:56.421Z,8.60
2019-04-22T15:22:23.166Z,8.37
2019-04-22T15:24:50.253Z,6.17
2019-04-22T15:27:18.435Z,4.77
2019-04-22T15:29:45.342Z,7.53
2019-04-22T15:32:13.414Z,6.57
2019-04-22T15:34:41.557Z,11.00
2019-04-22T15:37:08.759Z,7.73
2019-04-22T15:39:36.336Z,5.67
2019-04-22T15:42:11.533Z,7.27
2019-04-22T15:44:33.886Z,8.47
2019-04-22T15:47:01.055Z,9.90
2019-04-22T15:49:27.969Z,8.87
2019-04-22T15:51:57.574Z,10.97
2019-04-22T15:54:23.618Z,7.40
2019-04-22T15:56:50.795Z,7.80
2019-04-22T15:59:39.562Z,6.50
2019-04-22T16:01:46.800Z,6.70
2019-04-22T16:04:14.792Z,9.03
2019-04-22T16:06:43.082Z,8.37
2019-04-22T16:09:11.102Z,9.43
2019-04-22T16:11:40.182Z,5.97
2019-04-22T16:14:08.529Z,6.70
2019-04-22T16:16:36.919Z,7.27
2019-04-22T16:19:04.451Z,9.43
2019-04-22T16:21:40.551Z,9.50
2019-04-22T16:24:02.579Z,7.50
2019-04-22T16:26:40.331Z,9.23
2019-04-22T16:29:09.539Z,12.90
2019-04-22T16:31:37.734Z,9.30
2019-04-22T16:34:07.469Z,7.83
2019-04-22T16:36:34.569Z,7.00
2019-04-22T16:39:02.742Z,11.47
2019-04-22T16:41:32.702Z,5.87
2019-04-22T16:44:00.758Z,7.23
2019-04-22T16:46:27.797Z,6.53
2019-04-22T16:48:56.032Z,7.40
2019-04-22T16:51:24.309Z,7.77
2019-04-22T16:53:51.158Z,6.40
2019-04-22T16:56:17.965Z,5.07
2019-04-22T16:58:46.414Z,7.77
2019-04-22T17:01:21.087Z,6.30
2019-04-22T17:04:06.961Z,6.80
2019-04-22T17:06:37.235Z,5.73
2019-04-22T17:09:06.742Z,5.20
2019-04-22T17:11:36.047Z,6.47
2019-04-22T17:14:03.543Z,6.57
2019-04-22T17:16:30.670Z,11.37
2019-04-22T17:18:58.489Z,17.50
2019-04-22T17:21:25.906Z,6.27
2019-04-22T17:23:53.925Z,8.50
2019-04-22T17:26:21.214Z,5.30
2019-04-22T17:28:51.219Z,7.27
2019-04-22T17:31:18.667Z,9.27
2019-04-22T17:33:46.720Z,9.93
2019-04-22T17:36:16.220Z,6.30
2019-04-22T17:38:54.337Z,7.20
2019-04-22T17:41:24.287Z,6.93
2019-04-22T17:44:09.871Z,10.03
2019-04-22T17:46:32.300Z,13.17
2019-04-22T17:49:10.242Z,12.97
2019-04-22T17:51:49.925Z,12.00
2019-04-22T17:54:17.604Z,11.17
2019-04-22T17:56:43.390Z,7.13
2019-04-22T17:59:11.744Z,6.73
2019-04-22T18:01:39.345Z,11.47
2019-04-22T18:03:53.250Z,6.30
2019-04-22T18:06:44.089Z,14.27
2019-04-22T18:09:01.439Z,8.83
2019-04-22T18:11:39.610Z,8.13
2019-04-22T18:14:25.907Z,10.10
2019-04-22T18:16:40.265Z,11.50
2019-04-22T18:19:08.957Z,7.33
2019-04-22T18:21:26.382Z,6.80
2019-04-22T18:23:53.911Z,9.07
2019-04-22T18:26:24.399Z,9.23
2019-04-22T18:29:00.682Z,8.20
2019-04-22T18:31:21.827Z,14.63
2019-04-22T18:33:50.357Z,10.13
2019-04-22T18:36:25.663Z,10.00
2019-04-22T18:39:02.812Z,5.80
2019-04-22T18:41:18.146Z,10.87
2019-04-22T18:44:01.871Z,6.90
2019-04-22T18:46:21.051Z,11.67
2019-04-22T18:48:54.225Z,6.60
2019-04-22T18:51:34.149Z,9.87
2019-04-22T18:54:13.579Z,9.03
2019-04-22T18:56:45.263Z,8.63
2019-04-22T18:58:59.442Z,7.63
2019-04-22T19:01:17.788Z,10.23
2019-04-22T19:03:55.193Z,6.93
2019-04-22T19:06:43.160Z,7.33
2019-04-22T19:09:09.205Z,11.87
2019-04-22T19:11:38.646Z,10.23
2019-04-22T19:19:21.225Z,7.07
2019-04-22T19:21:26.629Z,17.37
2019-04-22T19:23:57.047Z,9.07
2019-04-22T19:26:40.977Z,8.47
2019-04-22T19:28:55.494Z,10.30
2019-04-22T19:31:24.686Z,6.37
2019-04-22T19:33:55.067Z,12.30
2019-04-22T19:36:26.074Z,8.47
2019-04-22T19:38:52.584Z,10.43
2019-04-22T19:41:24.340Z,8.93
2019-04-22T19:43:50.181Z,11.70
2019-04-22T19:46:17.019Z,8.47
2019-04-22T19:48:50.148Z,11.07
2019-04-22T19:51:23.694Z,5.53
2019-04-22T19:53:47.395Z,7.37
2019-04-22T19:56:07.174Z,7.23
2019-04-22T19:58:37.234Z,9.03
2019-04-22T20:01:12.979Z,10.40
2019-04-22T20:04:12.090Z,6.60
2019-04-22T20:06:33.712Z,9.13
2019-04-22T20:09:07.343Z,7.83
2019-04-22T20:11:35.306Z,9.07
2019-04-22T20:14:07.495Z,7.23
2019-04-22T20:16:27.513Z,7.20
2019-04-22T20:19:05.796Z,9.13
2019-04-22T20:21:38.691Z,16.27
2019-04-22T20:23:53.075Z,8.67
2019-04-22T20:26:26.511Z,5.87
2019-04-22T20:28:57.601Z,7.13
2019-04-22T20:31:26.596Z,5.83
2019-04-22T20:34:05.023Z,7.23
2019-04-22T20:36:44.987Z,7.87
2019-04-22T20:38:49.490Z,6.57
2019-04-22T20:41:22.817Z,10.63
2019-04-22T20:44:12.786Z,7.20
2019-04-22T20:46:23.866Z,8.20
2019-04-22T20:48:56.859Z,7.53
2019-04-22T20:51:26.275Z,9.30
2019-04-22T20:53:56.470Z,5.03
2019-04-22T20:56:18.694Z,6.60
2019-04-22T20:58:46.542Z,5.07
2019-04-22T21:01:10.349Z,7.07
2019-04-22T21:03:33.801Z,6.23
2019-04-22T21:06:11.555Z,10.43
2019-04-22T21:08:42.285Z,6.33
2019-04-22T21:11:12.670Z,5.93
2019-04-22T21:13:35.138Z,6.00
2019-04-22T21:16:15.243Z,8.10
2019-04-22T21:18:32.166Z,5.80
2019-04-22T21:21:07.131Z,6.63
2019-04-22T21:23:30.099Z,5.80
2019-04-22T21:26:05.258Z,8.73
2019-04-22T21:28:34.200Z,9.53
2019-04-22T21:30:56.887Z,5.67
2019-04-22T21:33:22.259Z,6.10
2019-04-22T21:36:12.053Z,13.50
2019-04-22T21:38:31.117Z,5.23
2019-04-22T21:40:56.396Z,9.63
2019-04-22T21:43:29.945Z,5.53
2019-04-22T21:45:57.397Z,6.97
2019-04-22T21:48:33.948Z,6.40
2019-04-22T21:53:27.835Z,7.80
2019-04-22T21:56:10.143Z,9.13
2019-04-22T21:58:26.126Z,7.67
2019-04-22T22:01:22.199Z,12.07
2019-04-22T22:03:44.013Z,12.37
2019-04-22T22:06:01.468Z,5.90
2019-04-22T22:08:40.637Z,6.93
2019-04-22T22:11:09.601Z,5.67
2019-04-22T22:13:43.145Z,9.37
2019-04-22T22:16:01.407Z,6.17
2019-04-22T22:18:30.030Z,7.17
2019-04-22T22:21:25.249Z,8.93
2019-04-22T22:23:38.207Z,6.63
2019-04-22T22:25:57.004Z,9.03
2019-04-22T22:28:45.070Z,6.87
2019-04-22T22:31:10.315Z,8.07
2019-04-22T22:33:28.290Z,9.23
2019-04-22T22:35:57.906Z,7.17
2019-04-22T22:38:25.981Z,5.70
2019-04-22T22:40:39.671Z,9.63
2019-04-22T22:43:15.936Z,4.90
2019-04-22T22:45:39.721Z,5.70
2019-04-22T22:48:41.341Z,6.10
2019-04-22T22:50:47.831Z,5.07
2019-04-22T22:53:28.661Z,5.43
2019-04-22T22:55:46.283Z,5.27
2019-04-22T22:58:16.007Z,7.00
2019-04-22T23:00:40.907Z,6.13
2019-04-22T23:05:49.219Z,5.00
2019-04-22T23:08:17.005Z,4.63
2019-04-22T23:10:52.886Z,8.07
2019-04-22T23:13:14.660Z,5.50
2019-04-22T23:15:37.062Z,6.43
2019-04-22T23:17:45.746Z,6.67
2019-04-22T23:20:13.577Z,6.27
2019-04-22T23:23:06.221Z,4.80
2019-04-22T23:25:45.021Z,5.47
2019-04-22T23:28:01.291Z,5.30
2019-04-22T23:30:40.310Z,5.13
2019-04-22T23:33:27.698Z,5.13
2019-04-22T23:36:03.065Z,7.73
2019-04-22T23:38:35.771Z,5.27
2019-04-22T23:41:08.309Z,5.33
2019-04-22T23:43:40.876Z,6.07
2019-04-22T23:46:08.240Z,5.23
2019-04-22T23:48:28.984Z,5.03
2019-04-22T23:51:03.383Z,5.40
2019-04-22T23:54:05.826Z,4.33
2019-04-22T23:56:15.333Z,7.10
2019-04-22T23:58:47.610Z,5.90
